Tropical Cyclones
[Index]
Main Index Home Page Stock Weather Photos Extreme Storms Discussion Storm News and Storm Chasing Reports Tropical Cyclones / Hurricanes / Typhoons Weather Data and Links Wild Fires / Bushfires Weather Observation Techniques Weather Picture Catalogue Tornado Pictures and Reports Stock Video Footage and DVDs for sale
Season 1999-2000 Tropical Cyclone ILSA Track Map
Season 1999-2000 Summaries: [BoM-AU] [JTWC-AU] [JTWC-SIO] [JTWC-SPAC] [JTWC-SH]
<<- Previous TC | JTWC 1999-2000 Season | Next TC ->>

click for intensity scale information  Lat/long Grid: Show Hide

 Date Labels: Show Hide

Joint Typhoon Warning Centre Cyclone Data

Name: ILSA

10 Dec 1999 00:00 UTC to 17 Dec 1999 12:00 UTC

    date/time    lat    long     hPa   cat  kts
1999-12-10 00    9.4    97.4                  20          
1999-12-10 06    9.6    97.9                  20          
1999-12-10 12    9.8    98.3                  25          
1999-12-10 18   10.1    99.0                  30          
1999-12-11 00   10.5    99.6                  30          
1999-12-11 06   10.8   100.2                  35          
1999-12-11 12   11.2   100.9            1     40          
1999-12-11 18   11.6   101.5            1     40          
1999-12-12 00   11.9   102.0            1     40          
1999-12-12 06   12.1   102.5            1     45          
1999-12-12 12   12.3   102.8            1     45          
1999-12-12 18   12.4   103.5            1     45          
1999-12-13 00   12.4   104.2            1     50          
1999-12-13 06   12.4   105.0            2     55          
1999-12-13 12   12.4   105.8            2     55          
1999-12-13 18   12.4   106.6            2     55          
1999-12-14 00   12.2   107.4            2     55          
1999-12-14 06   12.1   108.4            2     55          
1999-12-14 12   12.0   109.2            2     55          
1999-12-14 18   12.0   110.1            2     55          
1999-12-15 00   12.1   111.0            2     55          
1999-12-15 06   12.5   112.4            2     60          
1999-12-15 12   12.9   113.4            2     60          
1999-12-15 18   13.7   114.5            2     60          
1999-12-16 00   15.0   116.0            2     60          
1999-12-16 06   16.1   117.3            1     50          
1999-12-16 12   17.3   118.5            1     45          
1999-12-16 18   18.4   119.3            1     50          
1999-12-17 00   19.2   120.0            2     55          
1999-12-17 06   20.0   120.8                  35          
1999-12-17 12   20.8   121.8                  30          
Winds are 1-min average.

Tropical cyclone tracks developed by Michael Bath using data from the Joint Typhoon Warning Centre Best Tracks and Google Maps.


[Australian Severe Weather index] [Copyright Notice] [Email Contacts] [Search This Site] [Privacy Policy]
Document: tropical_cyclone_ilsa.htm Updated: 18 September 2016